RAF Lakenheath

Airport
ICAO code: 
EGUL
Summary
ICAO Region: 
EUR
Territory: 
Location: 
Lakenheath, Suffolk, England,
Elevation: 
32 ft
Coordinates: 
Aerial View: 
52° 24' 33.486" N, 0° 33' 39.6" E
Metar
Observation
EGUL 050337Z AUTO 31015G22KT 9999 -DZ OVC011 04/04 A2941 RMK AO2 RAE14DZB14E16RAB16E27RAB27E27DZB37 CIG 010 RWY24 SLP963 $
Station
Lakenheath Royal Air Force Base
Date/Time
2021-12-05 03:37:00
Wind direction
310°
Wind speed
15 kts
Lowest cloud amount
overcast
Temperature
4°C
Dew point
4°C
Humidity
100%
Weather condition
light drizzle

Description

Royal Air Force Station Lakenheath, commonly abbreviated to RAF Lakenheath, is a military airbase hosting USAF forces near Lakenheath in Suffolk, England.

Climatology

Temperate Marine climate/Oceanic climate (Köppen climate classification Cfb) - Moderately cool summer and comparatively warm winter.

Runways

Designator Length Width Surface Rops
6/24 2743 46 PEM No/No
Airport map: 
Aerial View: 

SKYbrary Partners:

Safety knowledge contributed by: